createdAt,value
2022-12-18T00:00:08.594Z,77.26
2022-12-18T00:02:44.376Z,77.35
2022-12-18T00:05:12.910Z,77.21
2022-12-18T00:07:40.936Z,77.64
2022-12-18T00:10:10.295Z,76.84
2022-12-18T00:12:38.411Z,77.17
2022-12-18T00:15:07.920Z,77.15
2022-12-18T00:17:48.688Z,77.13
2022-12-18T00:20:23.926Z,77.33
2022-12-18T00:22:56.112Z,77.27
2022-12-18T00:25:26.588Z,76.85
2022-12-18T00:27:56.167Z,76.86
2022-12-18T00:30:24.157Z,77.02
2022-12-18T00:32:54.539Z,77.48
2022-12-18T00:35:24.071Z,77.89
2022-12-18T00:37:55.276Z,77.39
2022-12-18T00:40:33.601Z,77.60
2022-12-18T00:46:34.253Z,77.83
2022-12-18T01:00:34.015Z,76.98
2022-12-18T01:03:10.478Z,77.82
2022-12-18T01:05:43.545Z,78.64
2022-12-18T01:08:26.797Z,78.11
2022-12-18T01:11:11.828Z,77.99
2022-12-18T01:13:41.763Z,78.49
2022-12-18T01:16:17.874Z,78.23
2022-12-18T01:18:52.698Z,78.00
2022-12-18T01:21:25.047Z,78.34
2022-12-18T01:23:57.088Z,78.18
2022-12-18T01:26:32.857Z,78.15
2022-12-18T01:29:05.338Z,78.00
2022-12-18T01:31:43.710Z,78.30
2022-12-18T01:34:27.949Z,78.30
2022-12-18T01:36:57.476Z,78.83
2022-12-18T01:39:26.746Z,78.15
2022-12-18T01:42:12.119Z,78.01
2022-12-18T01:51:46.568Z,77.77
2022-12-18T01:54:24.494Z,78.03
2022-12-18T02:00:52.256Z,78.66
2022-12-18T02:03:21.320Z,78.27
2022-12-18T02:06:01.412Z,77.92
2022-12-18T02:08:35.048Z,77.85
2022-12-18T02:11:09.446Z,77.72
2022-12-18T02:13:46.418Z,77.48
2022-12-18T02:16:23.961Z,77.53
2022-12-18T02:18:58.746Z,77.62
2022-12-18T02:21:39.198Z,78.09
2022-12-18T02:24:23.987Z,77.98
2022-12-18T02:26:55.813Z,77.73
2022-12-18T02:29:29.353Z,78.02
2022-12-18T02:32:03.642Z,78.26
2022-12-18T02:34:34.914Z,78.64
2022-12-18T02:37:08.280Z,77.98
2022-12-18T02:39:40.339Z,77.76
2022-12-18T02:42:09.960Z,77.49
2022-12-18T02:44:45.038Z,77.77
2022-12-18T02:47:15.936Z,77.74
2022-12-18T02:49:54.356Z,77.89
2022-12-18T02:52:31.229Z,78.06
2022-12-18T02:55:15.140Z,78.56
2022-12-18T02:57:51.357Z,78.62
2022-12-18T03:00:27.262Z,78.29
2022-12-18T03:03:00.310Z,78.93
2022-12-18T03:05:33.538Z,79.14
2022-12-18T03:08:08.020Z,78.95
2022-12-18T03:10:43.050Z,79.46
2022-12-18T03:13:15.891Z,78.75
2022-12-18T03:15:47.572Z,78.22
2022-12-18T03:18:20.929Z,78.96
2022-12-18T03:20:51.620Z,79.09
2022-12-18T03:23:26.632Z,79.07
2022-12-18T03:26:04.393Z,80.10
2022-12-18T03:28:44.315Z,80.07
2022-12-18T03:31:16.022Z,79.45
2022-12-18T03:33:49.710Z,79.54
2022-12-18T03:36:20.364Z,79.63
2022-12-18T03:38:49.254Z,79.53
2022-12-18T03:41:25.848Z,79.35
2022-12-18T03:44:22.970Z,79.23
2022-12-18T03:46:59.096Z,79.25
2022-12-18T03:49:34.486Z,79.44
2022-12-18T03:52:09.110Z,79.70
2022-12-18T03:54:42.963Z,79.50
2022-12-18T03:57:19.075Z,79.04
2022-12-18T03:59:54.147Z,79.51
2022-12-18T04:02:26.814Z,79.25
2022-12-18T04:05:01.826Z,79.14
2022-12-18T04:07:30.464Z,79.08
2022-12-18T04:10:01.786Z,79.50
2022-12-18T04:12:32.518Z,79.50
2022-12-18T04:15:02.522Z,80.15
2022-12-18T04:17:30.839Z,79.71
2022-12-18T04:19:59.323Z,79.96
2022-12-18T04:22:27.254Z,79.83
2022-12-18T04:25:00.241Z,80.23
2022-12-18T04:27:36.317Z,80.24
2022-12-18T04:30:08.884Z,80.07
2022-12-18T04:32:37.171Z,79.45
2022-12-18T04:35:07.603Z,79.64
2022-12-18T04:37:36.266Z,79.34
2022-12-18T04:40:04.766Z,79.95
2022-12-18T04:42:41.433Z,80.29
2022-12-18T04:45:11.730Z,80.62
2022-12-18T04:47:39.644Z,80.68
2022-12-18T04:50:08.355Z,80.87
2022-12-18T04:52:36.227Z,81.09
2022-12-18T04:55:04.187Z,81.10
2022-12-18T04:57:32.080Z,81.33
2022-12-18T04:59:59.872Z,81.32
2022-12-18T05:02:29.111Z,80.99
2022-12-18T05:04:57.021Z,81.70
2022-12-18T05:07:24.860Z,81.38
2022-12-18T05:09:52.652Z,81.36
2022-12-18T05:12:20.692Z,81.18
2022-12-18T05:14:48.745Z,81.02
2022-12-18T05:17:16.536Z,80.79
2022-12-18T05:19:48.615Z,80.77
2022-12-18T05:22:16.795Z,80.55
2022-12-18T05:24:44.660Z,80.58
2022-12-18T05:27:12.671Z,80.51
2022-12-18T05:29:40.617Z,79.90
2022-12-18T05:32:08.433Z,80.64
2022-12-18T05:34:36.195Z,80.58
2022-12-18T05:37:05.579Z,80.40
2022-12-18T05:39:33.485Z,80.64
2022-12-18T05:42:04.112Z,80.83
2022-12-18T05:44:32.416Z,80.13
2022-12-18T05:47:00.463Z,80.10
2022-12-18T05:49:28.689Z,80.12
2022-12-18T05:51:56.766Z,79.98
2022-12-18T05:54:27.316Z,80.47
2022-12-18T05:56:55.569Z,80.31
2022-12-18T05:59:23.540Z,80.08
2022-12-18T06:01:51.672Z,80.44
2022-12-18T06:04:19.946Z,80.30
2022-12-18T06:06:47.699Z,80.39
2022-12-18T06:09:15.633Z,80.24
2022-12-18T06:11:45.408Z,80.16
2022-12-18T06:14:13.313Z,80.43
2022-12-18T06:16:41.564Z,80.87
2022-12-18T06:19:09.466Z,80.54
2022-12-18T06:21:37.378Z,80.64
2022-12-18T06:24:05.717Z,80.50
2022-12-18T06:26:33.797Z,80.35
2022-12-18T06:29:03.059Z,80.59
2022-12-18T06:31:31.080Z,79.96
2022-12-18T06:33:59.114Z,79.33
2022-12-18T06:36:27.138Z,79.77
2022-12-18T06:38:55.173Z,79.26
2022-12-18T06:41:23.617Z,79.78
2022-12-18T06:43:55.576Z,79.90
2022-12-18T06:46:27.870Z,79.54
2022-12-18T06:48:56.021Z,79.62
2022-12-18T06:51:25.219Z,79.37
2022-12-18T06:53:53.405Z,79.49
2022-12-18T06:56:21.395Z,79.39
2022-12-18T06:58:52.497Z,79.16
2022-12-18T07:01:20.700Z,79.21
2022-12-18T07:03:54.003Z,79.30
2022-12-18T07:06:23.789Z,79.81
2022-12-18T07:08:52.122Z,79.57
2022-12-18T07:11:21.488Z,79.71
2022-12-18T07:13:50.077Z,79.70
2022-12-18T07:16:24.784Z,79.88
2022-12-18T07:18:54.490Z,79.80
2022-12-18T07:21:23.512Z,80.04
2022-12-18T07:23:51.478Z,80.13
2022-12-18T07:26:21.714Z,80.08
2022-12-18T07:28:51.223Z,79.80
2022-12-18T07:31:22.639Z,80.02
2022-12-18T07:33:51.113Z,79.74
2022-12-18T07:36:23.796Z,80.02
2022-12-18T07:38:53.460Z,79.82
2022-12-18T07:41:21.795Z,79.91
2022-12-18T07:43:50.047Z,79.61
2022-12-18T07:46:18.738Z,80.06
2022-12-18T07:48:49.488Z,79.60
2022-12-18T07:51:18.976Z,80.00
2022-12-18T07:57:33.738Z,80.12
2022-12-18T08:03:03.207Z,80.26
2022-12-18T08:05:31.010Z,80.00
2022-12-18T08:08:00.569Z,79.99
2022-12-18T08:10:29.941Z,79.79
2022-12-18T08:13:01.540Z,79.64
2022-12-18T08:15:32.849Z,79.26
2022-12-18T08:18:00.787Z,78.83
2022-12-18T08:20:28.629Z,79.53
2022-12-18T08:22:56.465Z,79.30
2022-12-18T08:25:24.586Z,79.10
2022-12-18T08:27:55.019Z,78.36
2022-12-18T08:30:23.448Z,78.32
2022-12-18T08:32:53.684Z,78.68
2022-12-18T08:35:24.242Z,78.37
2022-12-18T08:37:52.490Z,78.42
2022-12-18T08:40:20.504Z,78.06
2022-12-18T08:43:06.075Z,78.15
2022-12-18T08:45:36.278Z,78.03
2022-12-18T08:48:04.882Z,77.45
2022-12-18T08:50:33.314Z,77.15
2022-12-18T08:53:01.730Z,77.85
2022-12-18T08:55:30.601Z,77.72
2022-12-18T08:57:58.887Z,77.47
2022-12-18T09:00:27.195Z,77.28
2022-12-18T09:02:56.924Z,77.10
2022-12-18T09:05:26.346Z,76.68
2022-12-18T09:07:55.565Z,76.84
2022-12-18T09:10:23.913Z,76.90
2022-12-18T09:12:52.496Z,76.89
2022-12-18T09:15:21.051Z,76.82
2022-12-18T09:18:04.382Z,76.04
2022-12-18T09:20:41.246Z,76.13
2022-12-18T09:23:15.101Z,76.14
2022-12-18T09:25:44.787Z,76.41
2022-12-18T09:28:20.935Z,75.80
2022-12-18T09:30:52.152Z,74.91
2022-12-18T09:33:30.180Z,75.70
2022-12-18T09:40:10.758Z,75.05
2022-12-18T09:43:02.994Z,74.83
2022-12-18T09:45:41.890Z,74.34
2022-12-18T09:48:15.917Z,74.36
2022-12-18T09:50:45.624Z,74.20
2022-12-18T09:53:20.020Z,73.99
2022-12-18T09:55:50.578Z,73.11
2022-12-18T09:58:24.551Z,72.62
2022-12-18T10:00:54.381Z,72.37
2022-12-18T10:03:23.268Z,72.38
2022-12-18T10:06:05.038Z,72.74
2022-12-18T10:08:46.851Z,72.13
2022-12-18T10:15:15.271Z,70.63
2022-12-18T10:17:48.780Z,70.32
2022-12-18T10:20:25.435Z,69.76
2022-12-18T10:23:01.286Z,69.77
2022-12-18T10:25:41.650Z,69.42
2022-12-18T10:28:18.537Z,69.54
2022-12-18T10:30:53.721Z,68.98
2022-12-18T10:33:29.313Z,68.85
2022-12-18T10:35:58.135Z,68.69
2022-12-18T10:38:28.809Z,68.91
2022-12-18T10:41:21.694Z,69.32
2022-12-18T10:43:50.919Z,69.43
2022-12-18T10:46:23.581Z,69.19
2022-12-18T10:48:57.146Z,69.47
2022-12-18T10:51:56.165Z,69.37
2022-12-18T10:54:26.888Z,69.11
2022-12-18T10:57:19.987Z,69.25
2022-12-18T10:59:54.626Z,68.14
2022-12-18T11:02:39.399Z,67.81
2022-12-18T11:05:31.183Z,66.92
2022-12-18T11:08:01.221Z,66.80
2022-12-18T11:10:34.273Z,66.53
2022-12-18T11:16:23.946Z,66.00
2022-12-18T11:18:52.848Z,66.05
2022-12-18T11:21:22.504Z,65.67
2022-12-18T11:24:15.533Z,65.67
2022-12-18T11:26:46.255Z,65.93
2022-12-18T11:29:25.862Z,65.24
2022-12-18T11:31:54.387Z,65.52
2022-12-18T11:52:25.108Z,65.15
2022-12-18T12:00:33.278Z,63.19
2022-12-18T12:12:51.912Z,65.04
2022-12-18T12:49:07.233Z,64.31
2022-12-18T12:51:42.483Z,64.23
2022-12-18T12:54:18.103Z,64.69
2022-12-18T12:57:00.434Z,64.53
2022-12-18T12:59:39.306Z,64.64
2022-12-18T13:02:19.794Z,64.37
2022-12-18T13:04:53.406Z,64.18
2022-12-18T13:07:28.974Z,64.13
2022-12-18T13:10:28.695Z,63.69
2022-12-18T13:12:59.571Z,64.02
2022-12-18T13:15:33.729Z,63.91
2022-12-18T13:18:16.278Z,64.37
2022-12-18T13:20:53.653Z,64.16
2022-12-18T13:23:40.803Z,64.42
2022-12-18T13:26:35.121Z,65.14
2022-12-18T13:29:07.314Z,65.51
2022-12-18T13:32:03.381Z,65.46
2022-12-18T13:34:33.528Z,65.55
2022-12-18T13:37:35.633Z,65.52
2022-12-18T13:40:03.989Z,65.19
2022-12-18T13:43:00.505Z,65.75
2022-12-18T13:45:47.343Z,65.40
2022-12-18T13:48:25.546Z,65.53
2022-12-18T13:51:01.829Z,65.71
2022-12-18T13:53:35.015Z,65.94
2022-12-18T13:56:05.131Z,65.84
2022-12-18T13:58:34.401Z,66.15
2022-12-18T14:01:05.680Z,65.98
2022-12-18T14:03:34.515Z,66.53
2022-12-18T14:06:06.945Z,66.03
2022-12-18T14:08:41.632Z,66.41
2022-12-18T14:11:22.067Z,67.65
2022-12-18T14:13:51.980Z,67.86
2022-12-18T14:16:22.926Z,68.01
2022-12-18T14:19:00.967Z,67.79
2022-12-18T14:21:41.126Z,67.93
2022-12-18T14:24:19.419Z,68.25
2022-12-18T14:26:48.730Z,68.59
2022-12-18T14:29:27.689Z,68.82
2022-12-18T14:32:17.525Z,68.66
2022-12-18T14:34:47.353Z,68.70
2022-12-18T14:37:16.943Z,69.11
2022-12-18T14:39:55.979Z,69.57
2022-12-18T14:42:29.567Z,70.10
2022-12-18T14:45:48.477Z,70.08
2022-12-18T14:48:23.411Z,70.35
2022-12-18T14:51:02.548Z,70.87
2022-12-18T14:53:38.206Z,71.14
2022-12-18T14:56:18.678Z,71.32
2022-12-18T14:58:50.176Z,71.66
2022-12-18T15:01:27.682Z,71.51
2022-12-18T15:03:59.736Z,71.68
2022-12-18T15:06:39.261Z,71.76
2022-12-18T15:09:23.928Z,72.20
2022-12-18T15:11:57.102Z,71.88
2022-12-18T15:14:37.017Z,72.36
2022-12-18T15:17:08.472Z,72.39
2022-12-18T15:19:42.202Z,72.37
2022-12-18T15:22:28.093Z,72.70
2022-12-18T15:24:57.799Z,72.72
2022-12-18T15:27:33.477Z,72.91
2022-12-18T15:30:20.090Z,72.82
2022-12-18T15:32:49.883Z,72.83
2022-12-18T15:35:22.558Z,73.36
2022-12-18T15:37:51.026Z,73.48
2022-12-18T15:40:20.660Z,73.63
2022-12-18T15:43:07.704Z,73.83
2022-12-18T15:45:36.281Z,74.31
2022-12-18T15:48:12.422Z,74.82
2022-12-18T15:50:42.276Z,74.92
2022-12-18T15:53:11.513Z,74.85
2022-12-18T15:56:01.020Z,74.85
2022-12-18T15:58:29.489Z,74.65
2022-12-18T16:01:01.321Z,75.03
2022-12-18T16:03:29.578Z,74.74
2022-12-18T16:06:02.901Z,74.67
2022-12-18T16:08:32.533Z,74.07
2022-12-18T16:11:00.603Z,74.42
2022-12-18T16:13:28.851Z,74.25
2022-12-18T16:15:57.068Z,74.22
2022-12-18T16:18:25.085Z,73.94
2022-12-18T16:20:52.993Z,74.42
2022-12-18T16:23:22.395Z,74.30
2022-12-18T16:25:52.304Z,74.09
2022-12-18T16:28:20.231Z,73.94
2022-12-18T16:30:48.179Z,74.16
2022-12-18T16:33:16.424Z,73.83
2022-12-18T16:35:45.078Z,74.26
2022-12-18T16:38:13.065Z,73.83
2022-12-18T16:41:04.164Z,74.16
2022-12-18T16:43:32.269Z,74.54
2022-12-18T16:46:02.960Z,74.15
2022-12-18T16:48:30.896Z,74.33
2022-12-18T16:51:03.689Z,74.27
2022-12-18T16:53:32.123Z,74.21
2022-12-18T16:56:05.905Z,73.62
2022-12-18T16:58:35.467Z,73.42
2022-12-18T17:01:09.861Z,73.25
2022-12-18T17:03:39.168Z,73.28
2022-12-18T17:06:08.511Z,72.24
2022-12-18T17:08:36.583Z,71.95
2022-12-18T17:11:09.566Z,71.54
2022-12-18T17:13:47.559Z,71.46
2022-12-18T17:16:17.662Z,71.28
2022-12-18T17:18:46.028Z,71.04
2022-12-18T17:21:17.139Z,71.00
2022-12-18T17:23:48.642Z,70.52
2022-12-18T17:26:18.449Z,70.07
2022-12-18T17:28:46.369Z,70.03
2022-12-18T17:31:16.046Z,69.08
2022-12-18T17:33:44.409Z,69.05
2022-12-18T17:36:13.372Z,69.13
2022-12-18T17:38:44.876Z,69.32
2022-12-18T17:41:14.037Z,69.37
2022-12-18T17:43:53.523Z,69.49
2022-12-18T17:46:24.092Z,69.26
2022-12-18T17:48:52.176Z,69.91
2022-12-18T17:51:20.302Z,69.66
2022-12-18T17:53:48.408Z,69.87
2022-12-18T17:56:18.615Z,69.63
2022-12-18T17:58:50.507Z,70.00
2022-12-18T18:01:20.742Z,70.25
2022-12-18T18:03:51.695Z,69.98
2022-12-18T18:06:22.661Z,69.58
2022-12-18T18:08:51.773Z,69.48
2022-12-18T18:11:51.470Z,69.01
2022-12-18T18:14:23.118Z,68.94
2022-12-18T18:16:53.116Z,68.66
2022-12-18T18:19:24.298Z,68.52
2022-12-18T18:21:54.651Z,69.08
2022-12-18T18:24:25.878Z,69.42
2022-12-18T18:26:56.651Z,69.49
2022-12-18T18:29:27.936Z,69.50
2022-12-18T18:31:57.658Z,69.60
2022-12-18T18:34:28.046Z,69.00
2022-12-18T18:36:58.617Z,67.82
2022-12-18T18:39:27.434Z,66.63
2022-12-18T18:41:55.991Z,64.83
2022-12-18T18:44:26.459Z,63.91
2022-12-18T18:46:56.372Z,63.05
2022-12-18T18:49:27.994Z,62.38
2022-12-18T18:52:00.954Z,61.64
2022-12-18T18:54:33.186Z,61.33
2022-12-18T18:57:20.933Z,61.26
2022-12-18T18:59:54.090Z,61.34
2022-12-18T19:02:22.897Z,61.41
2022-12-18T19:04:50.949Z,61.10
2022-12-18T19:07:29.935Z,61.29
2022-12-18T19:10:04.907Z,62.27
2022-12-18T19:12:51.613Z,63.25
2022-12-18T19:15:21.785Z,63.59
2022-12-18T19:17:50.341Z,64.00
2022-12-18T19:20:20.121Z,63.94
2022-12-18T19:22:55.681Z,64.08
2022-12-18T19:25:38.137Z,64.04
2022-12-18T19:28:21.647Z,63.59
2022-12-18T19:30:58.814Z,63.30
2022-12-18T19:33:45.411Z,63.36
2022-12-18T19:36:19.193Z,63.73
2022-12-18T19:38:47.640Z,63.64
2022-12-18T19:41:16.921Z,63.64
2022-12-18T19:43:48.067Z,63.70
2022-12-18T19:46:20.896Z,63.21
2022-12-18T19:48:50.754Z,62.93
2022-12-18T19:51:21.195Z,62.35
2022-12-18T19:53:54.963Z,60.87
2022-12-18T19:56:28.259Z,59.00
2022-12-18T19:58:56.719Z,58.12
2022-12-18T20:01:27.849Z,58.06
2022-12-18T20:03:57.592Z,58.24
2022-12-18T20:06:29.830Z,59.00
2022-12-18T20:09:00.725Z,58.87
2022-12-18T20:11:29.550Z,59.50
2022-12-18T20:14:06.567Z,59.51
2022-12-18T20:16:36.720Z,59.33
2022-12-18T20:19:05.999Z,59.47
2022-12-18T20:21:38.541Z,59.54
2022-12-18T20:24:08.434Z,58.79
2022-12-18T20:26:39.130Z,58.57
2022-12-18T20:29:07.739Z,58.52
2022-12-18T20:31:37.758Z,58.15
2022-12-18T20:34:06.094Z,57.96
2022-12-18T20:36:36.392Z,58.08
2022-12-18T20:39:08.747Z,58.11
2022-12-18T20:41:38.829Z,57.92
2022-12-18T20:44:22.261Z,58.16
2022-12-18T20:46:55.554Z,58.32
2022-12-18T20:49:24.872Z,58.77
2022-12-18T20:51:56.943Z,58.67
2022-12-18T20:54:28.022Z,58.75
2022-12-18T20:56:57.821Z,58.52
2022-12-18T20:59:26.636Z,58.17
2022-12-18T21:01:56.623Z,58.53
2022-12-18T21:04:25.372Z,58.52
2022-12-18T21:06:56.766Z,58.53
2022-12-18T21:09:26.069Z,58.67
2022-12-18T21:12:23.280Z,58.84
2022-12-18T21:14:51.462Z,59.21
2022-12-18T21:17:21.104Z,59.32
2022-12-18T21:19:49.483Z,59.29
2022-12-18T21:22:18.425Z,59.39
2022-12-18T21:24:46.709Z,59.63
2022-12-18T21:27:17.785Z,60.08
2022-12-18T21:29:47.001Z,60.15
2022-12-18T21:32:15.805Z,60.49
2022-12-18T21:34:48.188Z,60.77
2022-12-18T21:37:16.586Z,60.78
2022-12-18T21:39:45.138Z,60.68
2022-12-18T21:42:31.618Z,60.82
2022-12-18T21:44:59.750Z,61.22
2022-12-18T21:47:27.792Z,61.41
2022-12-18T21:49:57.308Z,61.58
2022-12-18T21:52:32.390Z,61.97
2022-12-18T21:55:08.343Z,62.35
2022-12-18T21:57:37.561Z,62.24
2022-12-18T22:00:06.752Z,62.22
2022-12-18T22:02:40.317Z,62.14
2022-12-18T22:05:10.733Z,62.44
2022-12-18T22:07:40.079Z,62.09
2022-12-18T22:10:09.613Z,62.17
2022-12-18T22:12:43.338Z,62.83
2022-12-18T22:15:21.545Z,62.18
2022-12-18T22:17:51.371Z,62.47
2022-12-18T22:20:30.398Z,62.84
2022-12-18T22:22:58.929Z,62.92
2022-12-18T22:25:29.504Z,63.12
2022-12-18T22:28:15.728Z,63.37
2022-12-18T22:30:45.135Z,63.13
2022-12-18T22:33:13.666Z,62.83
2022-12-18T22:35:44.228Z,63.06
2022-12-18T22:38:13.408Z,63.02
2022-12-18T22:40:42.739Z,63.27
2022-12-18T22:43:17.392Z,63.14
2022-12-18T22:45:47.610Z,63.21
2022-12-18T22:48:16.980Z,63.37
2022-12-18T22:50:46.620Z,63.15
2022-12-18T22:53:16.827Z,63.27
2022-12-18T22:55:46.350Z,63.58
2022-12-18T22:58:15.155Z,63.62
2022-12-18T23:00:44.163Z,63.49
2022-12-18T23:03:12.721Z,63.43
2022-12-18T23:05:43.419Z,63.96
2022-12-18T23:08:14.022Z,63.63
2022-12-18T23:10:42.452Z,63.98
2022-12-18T23:13:10.833Z,63.54
2022-12-18T23:15:43.956Z,63.55
2022-12-18T23:18:12.578Z,63.07
2022-12-18T23:20:41.153Z,63.12
2022-12-18T23:23:09.827Z,63.08
2022-12-18T23:25:40.140Z,63.36
2022-12-18T23:28:08.589Z,63.35
2022-12-18T23:30:36.791Z,63.26
2022-12-18T23:33:05.307Z,63.44
2022-12-18T23:35:33.604Z,63.46
2022-12-18T23:38:01.724Z,63.46
2022-12-18T23:40:32.494Z,63.50
2022-12-18T23:43:01.890Z,63.14
2022-12-18T23:45:30.203Z,63.32
2022-12-18T23:47:58.339Z,63.66
2022-12-18T23:50:29.399Z,64.00
2022-12-18T23:53:04.901Z,64.30
2022-12-18T23:55:35.733Z,64.28
2022-12-18T23:58:05.652Z,64.46
